Time;durP1;ratioP1;P1;durP2;ratioP2;P2;SDS_P1;SDS_P2;PMS_P1;PMS_P2;Temp;Humidity;BMP_temperature;BMP_pressure;BME280_temperature;BME280_humidity;BME280_pressure;Samples;Min_cycle;Max_cycle;Signal;HPM_P1;HPM_P2
2023/02/15 00:01:42;;;;;;;49.77;30.50;;;5.10;99.90;;;;;;5110394;27;20959;-77
2023/02/15 00:04:18;;;;;;;46.37;30.37;;;5.10;99.90;;;;;;5108322;28;20558;-76
2023/02/15 00:06:48;;;;;;;46.70;29.87;;;5.10;99.90;;;;;;5105738;28;20497;-75
2023/02/15 00:09:19;;;;;;;48.43;29.97;;;5.10;99.90;;;;;;5101670;28;20484;-76
2023/02/15 00:11:50;;;;;;;50.80;29.87;;;5.10;99.90;;;;;;5104589;28;20456;-78
2023/02/15 00:14:23;;;;;;;51.17;31.10;;;5.10;99.90;;;;;;5098519;27;20471;-76
2023/02/15 00:16:59;;;;;;;45.63;28.77;;;5.10;99.90;;;;;;5099160;27;20876;-76
2023/02/15 00:19:32;;;;;;;47.87;30.10;;;5.10;99.90;;;;;;5086790;27;20584;-75
2023/02/15 00:22:01;;;;;;;49.47;30.10;;;5.10;99.90;;;;;;5095671;28;20502;-76
2023/02/15 00:24:32;;;;;;;49.73;30.00;;;5.10;99.90;;;;;;5091782;27;20490;-76
2023/02/15 00:27:03;;;;;;;49.27;29.00;;;5.10;99.90;;;;;;5098672;27;21021;-77
2023/02/15 00:29:34;;;;;;;47.40;30.80;;;5.10;99.90;;;;;;5097416;27;21108;-76
2023/02/15 00:32:10;;;;;;;49.60;30.03;;;5.10;99.90;;;;;;5097727;28;20967;-76
2023/02/15 00:34:43;;;;;;;46.73;29.77;;;5.20;99.90;;;;;;5102564;28;20464;-77
2023/02/15 00:37:13;;;;;;;47.60;29.70;;;5.20;99.90;;;;;;5098688;28;20487;-77
2023/02/15 00:39:45;;;;;;;50.03;31.93;;;5.20;99.90;;;;;;5098275;27;20503;-76
2023/02/15 00:42:15;;;;;;;55.57;30.17;;;5.20;99.90;;;;;;5098379;28;20474;-76
2023/02/15 00:44:46;;;;;;;54.80;30.23;;;5.20;99.90;;;;;;5099383;27;20971;-76
2023/02/15 00:47:15;;;;;;;47.60;28.33;;;5.20;99.90;;;;;;5105133;27;21242;-76
2023/02/15 00:49:44;;;;;;;48.37;29.43;;;5.20;99.90;;;;;;5104806;27;20480;-77
2023/02/15 00:52:13;;;;;;;47.50;29.13;;;5.30;99.90;;;;;;5109444;28;20536;-76
2023/02/15 00:54:45;;;;;;;42.57;28.00;;;5.30;99.90;;;;;;5109330;28;20479;-77
2023/02/15 00:57:14;;;;;;;51.10;29.17;;;5.20;99.90;;;;;;5104995;27;20487;-77
2023/02/15 00:59:46;;;;;;;50.73;29.37;;;5.20;99.90;;;;;;5100128;27;20507;-77
2023/02/15 01:02:17;;;;;;;50.00;30.43;;;5.20;99.90;;;;;;5103405;27;20483;-77
2023/02/15 01:04:48;;;;;;;47.07;29.70;;;5.30;99.90;;;;;;5106819;28;20472;-76
2023/02/15 01:07:19;;;;;;;53.67;29.93;;;5.30;99.90;;;;;;5106313;28;20825;-77
2023/02/15 01:09:53;;;;;;;51.13;30.60;;;5.30;99.90;;;;;;5105187;27;20488;-76
2023/02/15 01:12:21;;;;;;;53.10;30.53;;;5.20;99.90;;;;;;5105646;28;20464;-77
2023/02/15 01:15:01;;;;;;;52.00;31.13;;;5.20;99.90;;;;;;5104765;27;20482;-77
2023/02/15 01:17:32;;;;;;;62.97;34.70;;;5.20;99.90;;;;;;5093914;27;20468;-76
2023/02/15 01:20:05;;;;;;;62.77;34.33;;;5.20;99.90;;;;;;5098233;28;20480;-76
2023/02/15 01:22:32;;;;;;;60.70;36.50;;;5.20;99.90;;;;;;5106391;28;20487;-77
2023/02/15 01:25:02;;;;;;;68.90;38.33;;;5.20;99.90;;;;;;5106227;28;20524;-77
2023/02/15 01:27:40;;;;;;;77.60;40.60;;;5.20;99.90;;;;;;5106697;28;20489;-77
2023/02/15 01:30:14;;;;;;;65.93;41.47;;;5.20;99.90;;;;;;5094700;27;20549;-76
2023/02/15 01:32:48;;;;;;;63.23;38.10;;;5.20;99.90;;;;;;5099308;28;20506;-76
2023/02/15 01:35:22;;;;;;;64.27;39.60;;;5.20;99.90;;;;;;5101592;28;20534;-78
2023/02/15 01:37:59;;;;;;;66.63;38.57;;;5.20;99.90;;;;;;5090465;27;20468;-76
2023/02/15 01:40:27;;;;;;;61.80;38.40;;;5.10;99.90;;;;;;5099766;28;20505;-75
2023/02/15 01:42:59;;;;;;;66.90;38.80;;;5.10;99.90;;;;;;5097732;27;20524;-76
2023/02/15 01:45:30;;;;;;;63.13;38.77;;;5.20;99.90;;;;;;5103152;28;22607;-75
2023/02/15 01:48:04;;;;;;;63.90;37.30;;;5.20;99.90;;;;;;5098340;22;20978;-75
2023/02/15 01:50:40;;;;;;;59.63;33.20;;;5.20;99.90;;;;;;5058487;28;20473;-75
2023/02/15 01:53:13;;;;;;;55.73;33.30;;;5.20;99.90;;;;;;5065865;28;20461;-76
2023/02/15 01:55:47;;;;;;;48.20;30.60;;;5.20;99.90;;;;;;5077515;28;20499;-75
2023/02/15 01:58:21;;;;;;;53.50;30.33;;;5.20;99.90;;;;;;5067888;28;21095;-75
2023/02/15 02:00:53;;;;;;;47.13;28.43;;;5.10;99.90;;;;;;5063005;28;20925;-75
2023/02/15 02:03:43;;;;;;;47.57;30.37;;;5.20;99.90;;;;;;5066576;28;20835;-75
2023/02/15 02:06:24;;;;;;;47.63;29.07;;;5.10;99.90;;;;;;5060533;28;20489;-76
2023/02/15 05:21:06;;;;;;;42.30;24.43;;;4.70;99.90;;;;;;5060821;28;20469;-73
2023/02/15 05:23:40;;;;;;;44.20;26.10;;;4.70;99.90;;;;;;5067773;28;20981;-72
2023/02/15 05:29:04;;;;;;;38.87;24.40;;;4.60;99.90;;;;;;5069232;28;20482;-74
2023/02/15 05:31:38;;;;;;;37.23;24.47;;;4.60;99.90;;;;;;5047686;28;21011;-77
2023/02/15 05:34:10;;;;;;;42.30;25.67;;;4.60;99.90;;;;;;5059698;28;20467;-73
2023/02/15 05:36:43;;;;;;;39.97;24.33;;;4.60;99.90;;;;;;5069213;28;20462;-73
2023/02/15 05:39:12;;;;;;;38.23;24.50;;;4.50;99.90;;;;;;5059410;28;21204;-74
2023/02/15 05:41:40;;;;;;;42.90;25.80;;;4.50;99.90;;;;;;5061447;28;20571;-73
2023/02/15 05:48:25;;;;;;;43.47;25.23;;;4.50;99.90;;;;;;5063055;28;20488;-73
2023/02/15 05:55:00;;;;;;;36.47;23.90;;;4.60;99.90;;;;;;5007209;28;20469;-74
2023/02/15 05:57:29;;;;;;;39.10;24.00;;;4.50;99.90;;;;;;5060822;28;20527;-75
2023/02/15 05:59:59;;;;;;;42.23;25.20;;;4.50;99.90;;;;;;5056775;28;20959;-73
2023/02/15 06:02:30;;;;;;;39.07;23.90;;;4.50;99.90;;;;;;5058316;28;20466;-73
2023/02/15 06:05:00;;;;;;;40.93;25.73;;;4.50;99.90;;;;;;5059989;28;20465;-73
2023/02/15 06:07:37;;;;;;;40.37;25.47;;;4.40;99.90;;;;;;5063173;28;20480;-74
2023/02/15 06:10:12;;;;;;;45.97;24.93;;;4.40;99.90;;;;;;5060053;28;20480;-73
2023/02/15 06:12:44;;;;;;;38.20;25.63;;;4.40;99.90;;;;;;5051755;28;20469;-73
2023/02/15 06:15:13;;;;;;;35.77;24.10;;;4.40;99.90;;;;;;5045935;28;20480;-73
2023/02/15 06:17:44;;;;;;;42.20;25.83;;;4.40;99.90;;;;;;5050883;28;20647;-73
2023/02/15 06:20:16;;;;;;;39.17;24.37;;;4.40;99.90;;;;;;5060343;28;20476;-73
2023/02/15 06:22:52;;;;;;;38.13;23.37;;;4.40;99.90;;;;;;5060495;28;20696;-73
2023/02/15 06:25:27;;;;;;;41.13;24.17;;;4.50;99.90;;;;;;5053900;28;20719;-73
2023/02/15 06:27:58;;;;;;;40.00;24.20;;;4.40;99.90;;;;;;5055445;28;20489;-73
2023/02/15 06:30:26;;;;;;;41.57;25.43;;;4.40;99.90;;;;;;5057775;28;21203;-73
2023/02/15 06:32:57;;;;;;;41.03;24.37;;;4.40;99.90;;;;;;5056446;28;20987;-73
2023/02/15 06:35:32;;;;;;;41.57;25.47;;;4.40;99.90;;;;;;5055868;28;20837;-75
2023/02/15 06:38:07;;;;;;;42.33;25.20;;;4.30;99.90;;;;;;5062888;28;20493;-73
2023/02/15 06:43:25;;;;;;;41.23;25.60;;;4.30;99.90;;;;;;5032497;28;20457;-74
2023/02/15 06:46:02;;;;;;;41.73;24.50;;;4.30;99.90;;;;;;5055236;28;20470;-72
2023/02/15 06:48:32;;;;;;;37.37;24.07;;;4.30;99.90;;;;;;5056816;28;20485;-74
2023/02/15 06:51:01;;;;;;;39.43;25.53;;;4.30;99.90;;;;;;5056586;28;20473;-73
2023/02/15 06:53:42;;;;;;;43.60;25.27;;;4.30;99.90;;;;;;5058208;28;20488;-73
2023/02/15 06:56:13;;;;;;;39.67;25.90;;;4.30;99.90;;;;;;5061068;28;20473;-73
2023/02/15 06:58:49;;;;;;;36.90;23.33;;;4.30;99.90;;;;;;5058447;28;21025;-73
2023/02/15 07:04:17;;;;;;;43.97;25.40;;;4.20;99.90;;;;;;5059958;28;20469;-75
2023/02/15 07:06:48;;;;;;;39.20;24.63;;;4.20;99.90;;;;;;5064093;28;20477;-75
2023/02/15 07:09:18;;;;;;;40.73;24.93;;;4.20;99.90;;;;;;5061309;28;20481;-74
2023/02/15 07:14:45;;;;;;;41.87;24.80;;;4.10;99.90;;;;;;5067480;28;20468;-73
2023/02/15 07:17:28;;;;;;;39.60;24.17;;;4.10;99.90;;;;;;5067779;28;20981;-73
2023/02/15 07:20:05;;;;;;;40.10;24.93;;;4.10;99.90;;;;;;5069704;28;20485;-73
2023/02/15 07:22:33;;;;;;;35.70;24.10;;;4.20;99.90;;;;;;5066405;28;20473;-73
2023/02/15 07:25:13;;;;;;;40.33;24.43;;;4.20;99.90;;;;;;5068771;28;22491;-74
2023/02/15 07:27:44;;;;;;;39.50;26.17;;;4.20;99.90;;;;;;5060248;28;20572;-74
2023/02/15 07:30:15;;;;;;;39.53;24.43;;;4.20;99.90;;;;;;5063915;28;20501;-75
2023/02/15 09:17:10;;;;;;;43.23;27.57;;;3.90;99.90;;;;;;1488888;26;20486;-75
2023/02/15 09:19:47;;;;;;;40.03;26.37;;;4.00;99.90;;;;;;5049866;28;20547;-77
2023/02/15 09:22:15;;;;;;;45.80;27.10;;;4.00;99.90;;;;;;5046746;28;20481;-75
2023/02/15 09:24:46;;;;;;;39.37;26.13;;;4.00;99.90;;;;;;5042024;28;20525;-76
2023/02/15 09:27:17;;;;;;;40.33;26.50;;;4.00;99.90;;;;;;5043736;28;21018;-76
2023/02/15 09:29:49;;;;;;;47.10;28.30;;;4.10;99.90;;;;;;5051037;28;20494;-76
2023/02/15 09:32:19;;;;;;;47.30;28.73;;;4.10;99.90;;;;;;5042014;28;20466;-76
2023/02/15 09:34:52;;;;;;;43.23;27.60;;;4.10;99.90;;;;;;5046882;28;20986;-76
2023/02/15 09:37:20;;;;;;;43.87;27.90;;;4.20;99.90;;;;;;5047326;28;20470;-76
2023/02/15 09:39:53;;;;;;;46.93;29.80;;;4.20;99.90;;;;;;5043307;28;20490;-76
2023/02/15 09:42:42;;;;;;;43.43;27.77;;;4.20;99.90;;;;;;5043852;28;21015;-77
2023/02/15 09:45:27;;;;;;;39.20;26.50;;;4.30;99.90;;;;;;5035738;28;21044;-77
2023/02/15 09:48:29;;;;;;;39.83;26.73;;;4.30;99.90;;;;;;5044416;28;20478;-78
2023/02/15 09:51:20;;;;;;;39.10;25.57;;;4.40;99.90;;;;;;5039623;28;20502;-76
2023/02/15 09:54:08;;;;;;;42.13;26.70;;;4.40;99.90;;;;;;5040109;28;20470;-77
2023/02/15 09:56:47;;;;;;;40.90;26.10;;;4.40;99.90;;;;;;5044248;28;20542;-78
2023/02/15 09:59:30;;;;;;;44.30;27.77;;;4.30;99.90;;;;;;5039379;28;20478;-77
2023/02/15 10:02:15;;;;;;;37.60;25.43;;;4.30;99.90;;;;;;5039919;28;20486;-78
2023/02/15 10:05:05;;;;;;;41.03;25.83;;;4.30;99.90;;;;;;5043945;28;20463;-78
2023/02/15 10:08:03;;;;;;;41.10;26.33;;;4.30;99.90;;;;;;5043041;28;20490;-76
2023/02/15 10:10:44;;;;;;;39.20;25.40;;;4.30;99.90;;;;;;5039800;28;20494;-76
2023/02/15 10:13:30;;;;;;;40.03;25.80;;;4.30;99.90;;;;;;5042220;28;20467;-77
2023/02/15 10:16:17;;;;;;;43.13;26.67;;;4.30;99.90;;;;;;5036722;28;20462;-77
2023/02/15 10:19:00;;;;;;;41.43;27.80;;;4.30;99.90;;;;;;5040225;28;20487;-77
2023/02/15 10:21:44;;;;;;;42.10;27.30;;;4.30;99.90;;;;;;5039592;28;20497;-78
2023/02/15 10:24:37;;;;;;;45.23;28.20;;;4.30;99.90;;;;;;5040066;28;20896;-77
2023/02/15 10:27:16;;;;;;;40.90;27.63;;;4.30;99.90;;;;;;5043180;28;20474;-77
2023/02/15 10:29:56;;;;;;;43.07;27.37;;;4.40;99.90;;;;;;5042444;28;20498;-77
2023/02/15 10:32:31;;;;;;;44.30;27.93;;;4.40;99.90;;;;;;5042223;28;20853;-77
2023/02/15 10:35:11;;;;;;;37.63;25.87;;;4.50;99.90;;;;;;5050400;28;20474;-78
2023/02/15 10:38:01;;;;;;;43.40;28.40;;;4.50;99.90;;;;;;5053786;28;20466;-78
2023/02/15 10:40:41;;;;;;;46.40;29.67;;;4.50;99.90;;;;;;5049899;28;20571;-77
2023/02/15 10:43:29;;;;;;;45.13;28.80;;;4.50;99.90;;;;;;5049201;28;20470;-77
2023/02/15 10:46:08;;;;;;;43.97;28.27;;;4.50;99.90;;;;;;5049416;28;20481;-78
2023/02/15 10:48:59;;;;;;;45.47;29.10;;;4.50;99.90;;;;;;5044911;28;20804;-76
2023/02/15 10:51:41;;;;;;;45.27;29.67;;;4.50;99.90;;;;;;5048721;28;20501;-77
2023/02/15 10:54:26;;;;;;;44.57;29.60;;;4.60;99.90;;;;;;5044267;28;20470;-77
2023/02/15 10:57:10;;;;;;;44.13;28.47;;;4.60;99.90;;;;;;5050895;28;20476;-77
2023/02/15 11:00:01;;;;;;;46.57;30.40;;;4.70;99.90;;;;;;5048099;28;20498;-77
2023/02/15 11:03:03;;;;;;;46.13;29.87;;;4.70;99.90;;;;;;5049644;28;20469;-76
2023/02/15 11:05:43;;;;;;;47.00;28.53;;;4.80;99.90;;;;;;5048281;28;20495;-77
2023/02/15 11:08:13;;;;;;;47.17;30.30;;;4.90;99.90;;;;;;5046430;28;20485;-77
2023/02/15 11:10:50;;;;;;;47.03;31.30;;;4.90;99.90;;;;;;5048822;28;20490;-77
2023/02/15 11:13:33;;;;;;;42.93;30.07;;;5.00;99.90;;;;;;5041624;28;20471;-78
2023/02/15 11:16:06;;;;;;;50.23;32.37;;;5.10;99.90;;;;;;5051946;28;20473;-76
2023/02/15 11:18:44;;;;;;;50.13;30.80;;;5.10;99.90;;;;;;5058712;28;20954;-77
2023/02/15 11:21:24;;;;;;;43.20;29.57;;;5.10;99.90;;;;;;5047236;28;20493;-77
2023/02/15 11:23:54;;;;;;;45.60;30.43;;;5.30;99.90;;;;;;5048175;28;20482;-77
2023/02/15 11:26:32;;;;;;;46.30;31.63;;;5.30;99.90;;;;;;5056558;28;20804;-77
2023/02/15 11:29:19;;;;;;;48.83;31.50;;;5.40;99.90;;;;;;5055432;28;20520;-76
2023/02/15 11:31:52;;;;;;;46.10;30.43;;;5.50;99.90;;;;;;5038662;28;20487;-77
2023/02/15 11:34:29;;;;;;;42.87;30.20;;;5.70;99.90;;;;;;5050125;28;20477;-77
2023/02/15 11:37:00;;;;;;;42.83;30.73;;;6.00;99.90;;;;;;5050250;28;20464;-77
2023/02/15 11:39:34;;;;;;;41.77;30.17;;;6.20;99.90;;;;;;5048215;28;20476;-75
2023/02/15 11:42:13;;;;;;;42.27;28.73;;;6.40;99.90;;;;;;5044660;28;20474;-74
2023/02/15 11:44:59;;;;;;;43.13;29.00;;;6.70;99.90;;;;;;5042192;28;20476;-75
2023/02/15 11:47:27;;;;;;;39.37;30.10;;;6.80;99.90;;;;;;5040468;28;20466;-76
2023/02/15 11:50:00;;;;;;;38.97;29.03;;;7.00;99.90;;;;;;5043354;28;20482;-76
2023/02/15 11:52:35;;;;;;;38.70;29.23;;;7.10;99.90;;;;;;5045159;28;20539;-77
2023/02/15 11:55:14;;;;;;;42.33;30.40;;;7.30;99.90;;;;;;5038630;28;20584;-75
2023/02/15 11:57:50;;;;;;;39.83;28.40;;;7.60;99.90;;;;;;5036762;28;20462;-75
2023/02/15 12:00:35;;;;;;;36.80;28.33;;;8.00;99.90;;;;;;5035716;28;20704;-76
2023/02/15 12:03:14;;;;;;;38.03;28.40;;;8.50;99.90;;;;;;5045646;28;20554;-75
2023/02/15 12:05:45;;;;;;;36.57;27.50;;;9.70;99.90;;;;;;5040493;28;20466;-76
2023/02/15 12:08:25;;;;;;;31.70;27.40;;;11.20;99.90;;;;;;5041718;28;20931;-76
2023/02/15 12:11:12;;;;;;;31.47;27.13;;;12.90;99.90;;;;;;5047763;28;20505;-77
2023/02/15 12:13:58;;;;;;;29.57;26.53;;;15.30;99.90;;;;;;5039980;28;20477;-76
2023/02/15 12:16:32;;;;;;;30.77;27.57;;;17.70;99.90;;;;;;5046347;28;20481;-76
2023/02/15 12:19:04;;;;;;;31.67;28.43;;;19.50;99.90;;;;;;5042732;28;21074;-77
2023/02/15 12:21:42;;;;;;;30.40;27.40;;;20.80;93.00;;;;;;5042673;28;20512;-77
2023/02/15 12:24:24;;;;;;;30.00;27.20;;;21.80;73.10;;;;;;5045633;28;20466;-77
2023/02/15 12:27:07;;;;;;;30.57;27.63;;;23.00;64.00;;;;;;5041195;28;20470;-77
2023/02/15 12:29:42;;;;;;;30.67;27.70;;;24.30;55.50;;;;;;5034269;28;20497;-76
2023/02/15 12:32:19;;;;;;;29.20;26.70;;;25.10;50.50;;;;;;5038971;28;20467;-77
2023/02/15 12:34:48;;;;;;;29.57;27.13;;;25.60;47.70;;;;;;5038706;28;21063;-75
2023/02/15 18:22:43;;;;;;;28.33;23.23;;;6.60;99.90;;;;;;5271276;22;24614;-77
2023/02/15 18:25:14;;;;;;;27.80;22.70;;;6.60;99.90;;;;;;5052869;22;20505;-82
2023/02/15 18:27:42;;;;;;;28.40;23.73;;;6.50;99.90;;;;;;5078283;28;20501;-82
2023/02/15 18:30:24;;;;;;;28.50;21.60;;;6.50;99.90;;;;;;5065231;28;20472;-78
2023/02/15 18:32:56;;;;;;;63.80;35.20;;;6.50;99.90;;;;;;5068309;28;20477;-79
2023/02/15 18:35:33;;;;;;;33.47;25.00;;;6.50;99.90;;;;;;5050567;28;20612;-81
2023/02/15 18:38:13;;;;;;;29.90;25.27;;;6.50;99.90;;;;;;5048956;28;20532;-85
2023/02/15 18:40:45;;;;;;;29.33;24.67;;;6.50;99.90;;;;;;5054484;22;20505;-79
2023/02/15 18:43:15;;;;;;;30.80;25.30;;;6.40;99.90;;;;;;5045363;28;20467;-77
2023/02/15 18:45:52;;;;;;;30.30;24.77;;;6.40;99.90;;;;;;5030873;28;20501;-78
2023/02/15 18:48:23;;;;;;;30.00;25.57;;;6.30;99.90;;;;;;5036635;28;20486;-77
2023/02/15 18:50:55;;;;;;;31.40;25.70;;;6.30;99.90;;;;;;5023193;28;20546;-77
2023/02/15 18:53:28;;;;;;;29.80;25.50;;;6.30;99.90;;;;;;5022788;28;20844;-76
2023/02/15 18:56:00;;;;;;;32.37;25.33;;;6.20;99.90;;;;;;5020102;28;20476;-78
2023/02/15 18:58:34;;;;;;;32.10;25.60;;;6.30;99.90;;;;;;5021652;28;20587;-76
2023/02/15 19:01:11;;;;;;;31.50;24.77;;;6.20;99.90;;;;;;5015067;28;20522;-76
2023/02/15 19:03:45;;;;;;;29.33;25.43;;;6.20;99.90;;;;;;5013424;28;20474;-75
2023/02/15 19:06:23;;;;;;;31.60;25.83;;;6.20;99.90;;;;;;5011285;28;20475;-76
2023/02/15 19:08:53;;;;;;;29.37;24.30;;;6.10;99.90;;;;;;5017003;28;21005;-74
2023/02/15 19:11:29;;;;;;;31.13;24.80;;;6.00;99.90;;;;;;5009564;28;20526;-74
2023/02/15 19:14:25;;;;;;;31.77;26.33;;;6.00;99.90;;;;;;5018563;28;20463;-74
2023/02/15 19:17:12;;;;;;;29.83;24.20;;;6.00;99.90;;;;;;5006107;28;20475;-74
2023/02/15 19:19:45;;;;;;;30.17;25.07;;;6.00;99.90;;;;;;5007242;28;21415;-73
2023/02/15 19:22:15;;;;;;;32.13;25.40;;;6.00;99.90;;;;;;5020048;28;20495;-74
2023/02/15 19:24:53;;;;;;;31.53;25.37;;;5.90;99.90;;;;;;5026686;28;21042;-74
2023/02/15 19:27:25;;;;;;;33.37;26.57;;;5.90;99.90;;;;;;5022087;28;20466;-74
2023/02/15 19:29:58;;;;;;;29.90;24.80;;;5.90;99.90;;;;;;5017152;28;20483;-74
2023/02/15 19:32:33;;;;;;;30.30;25.40;;;5.80;99.90;;;;;;5021415;28;20459;-75
2023/02/15 19:35:06;;;;;;;27.80;23.20;;;5.80;99.90;;;;;;5013845;28;21015;-74
2023/02/15 19:37:49;;;;;;;29.57;23.77;;;5.80;99.90;;;;;;5014749;28;20479;-75
2023/02/15 19:40:32;;;;;;;29.30;24.00;;;5.80;99.90;;;;;;5019964;28;20517;-75
2023/02/15 19:43:12;;;;;;;31.27;24.70;;;5.70;99.90;;;;;;5025840;28;20483;-76
2023/02/15 19:45:51;;;;;;;31.20;24.83;;;5.70;99.90;;;;;;5022318;28;20463;-74
2023/02/15 19:48:30;;;;;;;31.77;25.50;;;5.70;99.90;;;;;;5026192;28;20487;-74
2023/02/15 19:51:05;;;;;;;31.10;24.20;;;5.70;99.90;;;;;;5028540;28;20483;-75
2023/02/15 19:53:36;;;;;;;29.70;24.47;;;5.60;99.90;;;;;;5028035;28;20478;-76
2023/02/15 19:56:11;;;;;;;28.17;23.10;;;5.60;99.90;;;;;;5019354;28;20487;-75
2023/02/15 19:58:44;;;;;;;31.37;24.83;;;5.60;99.90;;;;;;5011719;28;20486;-77
2023/02/15 20:01:15;;;;;;;29.10;23.70;;;5.60;99.90;;;;;;5019081;28;20499;-76
2023/02/15 20:03:53;;;;;;;31.67;24.00;;;5.60;99.90;;;;;;5019171;28;20618;-75
2023/02/15 20:06:22;;;;;;;32.33;25.20;;;5.60;99.90;;;;;;5023363;28;20542;-76
2023/02/15 20:08:53;;;;;;;32.27;25.97;;;5.60;99.90;;;;;;5021860;28;20483;-76
2023/02/15 20:11:28;;;;;;;30.63;24.70;;;5.60;99.90;;;;;;5026083;28;20463;-77
2023/02/15 20:32:59;;;;;;;32.87;24.20;;;5.30;99.90;;;;;;5000426;28;20451;-76
2023/02/15 20:35:35;;;;;;;32.23;25.53;;;5.30;99.90;;;;;;5011322;28;20469;-75
2023/02/15 20:38:18;;;;;;;32.40;25.10;;;5.20;99.90;;;;;;5005376;28;20482;-77
2023/02/15 20:45:09;;;;;;;32.73;24.33;;;5.20;99.90;;;;;;5167452;22;20490;-90
2023/02/15 20:47:48;;;;;;;32.03;25.50;;;5.20;99.90;;;;;;5057178;28;20463;-91
2023/02/15 20:54:11;;;;;;;30.97;24.43;;;5.10;99.90;;;;;;5063244;28;20486;-90
2023/02/15 21:00:40;;;;;;;35.50;25.10;;;5.10;99.90;;;;;;5049343;28;20546;-93
2023/02/15 21:03:59;;;;;;;34.37;25.77;;;5.10;99.90;;;;;;5067731;28;20538;-90
2023/02/15 21:10:38;;;;;;;30.40;24.50;;;5.00;99.90;;;;;;5072986;28;20479;-93
2023/02/15 21:13:50;;;;;;;29.30;23.20;;;5.00;99.90;;;;;;5063927;28;20530;-92
2023/02/15 21:17:00;;;;;;;30.07;23.47;;;5.00;99.90;;;;;;5073326;28;20476;-92
2023/02/15 21:22:57;;;;;;;31.60;23.80;;;4.90;99.90;;;;;;5067362;28;20500;-91
2023/02/15 21:25:48;;;;;;;33.90;24.67;;;4.80;99.90;;;;;;5066511;28;20452;-92
2023/02/15 21:31:51;;;;;;;34.23;25.00;;;4.80;99.90;;;;;;5063616;28;20483;-91
2023/02/15 21:34:36;;;;;;;31.57;23.87;;;4.80;99.90;;;;;;5062689;28;20482;-91
2023/02/15 21:40:31;;;;;;;34.23;24.70;;;4.70;99.90;;;;;;5053422;28;20479;-92
2023/02/15 21:49:23;;;;;;;29.33;23.07;;;4.60;99.90;;;;;;4982701;28;20485;-92
2023/02/15 21:55:24;;;;;;;29.10;22.83;;;4.50;99.90;;;;;;4959798;28;20523;-92
2023/02/15 22:02:05;;;;;;;;;;;;;;;;;;;;;
2023/02/15 22:04:38;;;;;;;28.70;22.93;;;4.40;99.90;;;;;;5063343;28;20454;-92
2023/02/15 22:07:21;;;;;;;29.87;23.47;;;4.30;99.90;;;;;;5068864;28;20463;-91
2023/02/15 22:09:56;;;;;;;28.03;22.83;;;4.30;99.90;;;;;;5066280;28;20532;-91
2023/02/15 22:12:34;;;;;;;32.70;24.27;;;4.30;99.90;;;;;;5065939;28;20497;-90
2023/02/15 22:15:09;;;;;;;30.03;23.60;;;4.30;99.90;;;;;;5065286;28;20462;-93
2023/02/15 22:17:38;;;;;;;31.00;23.63;;;4.30;99.90;;;;;;5066964;28;20454;-91
2023/02/15 22:20:15;;;;;;;29.67;23.60;;;4.20;99.90;;;;;;5067031;28;20481;-91
2023/02/15 22:23:03;;;;;;;27.60;22.77;;;4.20;99.90;;;;;;5071241;28;20494;-91
2023/02/15 22:25:40;;;;;;;32.10;25.00;;;4.20;99.90;;;;;;5063974;28;20534;-91
2023/02/15 22:28:30;;;;;;;28.77;22.90;;;4.20;99.90;;;;;;5066496;28;20470;-92
2023/02/15 22:31:06;;;;;;;32.33;23.13;;;4.20;99.90;;;;;;5062721;28;20497;-92
2023/02/15 22:33:49;;;;;;;29.00;24.33;;;4.20;99.90;;;;;;5066982;28;20473;-93
2023/02/15 22:36:26;;;;;;;30.93;24.17;;;4.10;99.90;;;;;;5066621;28;20458;-90
2023/02/15 22:39:11;;;;;;;30.37;23.20;;;4.10;99.90;;;;;;5066248;28;20473;-92
2023/02/15 22:41:52;;;;;;;33.30;25.00;;;4.10;99.90;;;;;;5069190;28;20493;-91
2023/02/15 22:44:55;;;;;;;29.17;23.43;;;4.10;99.90;;;;;;5064068;28;20494;-92
2023/02/15 22:47:39;;;;;;;32.83;25.80;;;4.00;99.90;;;;;;5069317;28;20988;-91
2023/02/15 22:53:29;;;;;;;29.33;22.67;;;4.00;99.90;;;;;;5066551;28;20551;-92
2023/02/15 22:56:05;;;;;;;31.80;24.53;;;4.00;99.90;;;;;;5069264;28;20466;-91
2023/02/15 22:58:41;;;;;;;29.77;22.93;;;4.00;99.90;;;;;;5057930;28;20569;-91
2023/02/15 23:01:25;;;;;;;28.43;22.80;;;4.00;99.90;;;;;;5069463;28;20479;-92
2023/02/15 23:04:23;;;;;;;28.10;22.27;;;3.90;99.90;;;;;;5062720;28;20463;-93
2023/02/15 23:06:58;;;;;;;29.37;22.23;;;3.90;99.90;;;;;;5072353;28;20442;-90
2023/02/15 23:09:33;;;;;;;32.30;23.13;;;3.90;99.90;;;;;;5068584;28;20497;-94
2023/02/15 23:13:20;;;;;;;30.80;22.50;;;3.90;99.90;;;;;;5066465;28;20480;-92
2023/02/15 23:15:55;;;;;;;31.73;24.00;;;3.90;99.90;;;;;;5065496;28;20452;-91
2023/02/15 23:18:49;;;;;;;29.73;22.30;;;3.90;99.90;;;;;;5060748;28;20551;-91
2023/02/15 23:21:51;;;;;;;29.30;21.63;;;3.90;99.90;;;;;;5073955;28;20446;-92
2023/02/15 23:24:39;;;;;;;31.03;23.20;;;3.90;99.90;;;;;;5068594;28;20493;-91
2023/02/15 23:30:56;;;;;;;27.63;21.30;;;3.90;99.90;;;;;;5057214;28;20459;-91
2023/02/15 23:33:33;;;;;;;30.93;24.00;;;3.90;99.90;;;;;;5068580;28;20498;-92
2023/02/15 23:36:09;;;;;;;28.00;22.47;;;3.90;99.90;;;;;;5067613;28;20458;-90
2023/02/15 23:38:47;;;;;;;26.20;21.50;;;3.90;99.90;;;;;;5068635;28;20527;-91
2023/02/15 23:44:40;;;;;;;27.47;21.90;;;3.90;99.90;;;;;;5067343;28;20588;-90
2023/02/15 23:50:23;;;;;;;28.47;22.47;;;4.00;99.90;;;;;;5062905;28;20485;-90
2023/02/15 23:53:03;;;;;;;27.30;22.60;;;3.90;99.90;;;;;;5069053;28;20512;-90
2023/02/15 23:56:05;;;;;;;26.90;21.73;;;3.80;99.90;;;;;;5072439;28;20512;-91
2023/02/15 23:58:41;;;;;;;25.87;22.00;;;3.80;99.90;;;;;;5071990;28;20513;-92
